sensor_id;sensor_type;location;lat;lon;timestamp;P1;durP1;ratioP1;P2;durP2;ratioP2
5026;SDS011;2532;52.480;13.354;2022-10-30T00:01:13;22.53;;;16.90;;
5026;SDS011;2532;52.480;13.354;2022-10-30T00:03:39;34.43;;;18.27;;
5026;SDS011;2532;52.480;13.354;2022-10-30T00:06:06;28.20;;;19.47;;
5026;SDS011;2532;52.480;13.354;2022-10-30T00:08:33;31.93;;;17.97;;
5026;SDS011;2532;52.480;13.354;2022-10-30T00:11:05;30.33;;;20.10;;
5026;SDS011;2532;52.480;13.354;2022-10-30T00:13:32;30.70;;;18.33;;
5026;SDS011;2532;52.480;13.354;2022-10-30T00:16:01;25.83;;;18.50;;
5026;SDS011;2532;52.480;13.354;2022-10-30T00:18:29;31.30;;;18.00;;
5026;SDS011;2532;52.480;13.354;2022-10-30T00:20:56;27.30;;;16.93;;
5026;SDS011;2532;52.480;13.354;2022-10-30T00:23:23;27.33;;;15.90;;
5026;SDS011;2532;52.480;13.354;2022-10-30T00:25:50;28.03;;;18.67;;
5026;SDS011;2532;52.480;13.354;2022-10-30T00:28:18;28.87;;;18.57;;
5026;SDS011;2532;52.480;13.354;2022-10-30T00:30:44;41.57;;;19.37;;
5026;SDS011;2532;52.480;13.354;2022-10-30T00:33:11;30.07;;;17.70;;
5026;SDS011;2532;52.480;13.354;2022-10-30T00:35:38;27.63;;;17.70;;
5026;SDS011;2532;52.480;13.354;2022-10-30T00:38:13;26.77;;;17.03;;
5026;SDS011;2532;52.480;13.354;2022-10-30T00:40:39;29.30;;;17.80;;
5026;SDS011;2532;52.480;13.354;2022-10-30T00:45:58;30.70;;;18.07;;
5026;SDS011;2532;52.480;13.354;2022-10-30T00:48:29;26.00;;;18.47;;
5026;SDS011;2532;52.480;13.354;2022-10-30T00:50:56;32.50;;;18.30;;
5026;SDS011;2532;52.480;13.354;2022-10-30T00:53:24;23.73;;;16.47;;
5026;SDS011;2532;52.480;13.354;2022-10-30T00:55:54;30.57;;;17.90;;
5026;SDS011;2532;52.480;13.354;2022-10-30T00:58:24;30.87;;;19.13;;
5026;SDS011;2532;52.480;13.354;2022-10-30T01:00:56;33.53;;;19.13;;
5026;SDS011;2532;52.480;13.354;2022-10-30T01:03:24;28.00;;;17.07;;
5026;SDS011;2532;52.480;13.354;2022-10-30T01:05:54;39.67;;;18.80;;
5026;SDS011;2532;52.480;13.354;2022-10-30T01:08:24;30.77;;;18.20;;
5026;SDS011;2532;52.480;13.354;2022-10-30T01:10:51;28.33;;;19.40;;
5026;SDS011;2532;52.480;13.354;2022-10-30T01:13:18;27.17;;;17.30;;
5026;SDS011;2532;52.480;13.354;2022-10-30T01:15:49;34.50;;;19.00;;
5026;SDS011;2532;52.480;13.354;2022-10-30T01:18:28;26.77;;;17.47;;
5026;SDS011;2532;52.480;13.354;2022-10-30T01:21:10;30.23;;;18.33;;
5026;SDS011;2532;52.480;13.354;2022-10-30T01:23:47;34.77;;;18.43;;
5026;SDS011;2532;52.480;13.354;2022-10-30T01:26:27;31.43;;;18.27;;
5026;SDS011;2532;52.480;13.354;2022-10-30T01:29:10;31.70;;;20.00;;
5026;SDS011;2532;52.480;13.354;2022-10-30T01:31:51;29.63;;;18.57;;
5026;SDS011;2532;52.480;13.354;2022-10-30T01:34:32;34.10;;;18.80;;
5026;SDS011;2532;52.480;13.354;2022-10-30T01:37:09;27.70;;;18.10;;
5026;SDS011;2532;52.480;13.354;2022-10-30T01:39:42;30.63;;;20.33;;
5026;SDS011;2532;52.480;13.354;2022-10-30T01:42:09;33.10;;;20.00;;
5026;SDS011;2532;52.480;13.354;2022-10-30T01:44:36;31.13;;;19.50;;
5026;SDS011;2532;52.480;13.354;2022-10-30T01:47:11;35.57;;;19.50;;
5026;SDS011;2532;52.480;13.354;2022-10-30T01:49:54;35.23;;;20.80;;
5026;SDS011;2532;52.480;13.354;2022-10-30T01:52:41;30.40;;;18.23;;
5026;SDS011;2532;52.480;13.354;2022-10-30T01:55:17;25.70;;;18.30;;
5026;SDS011;2532;52.480;13.354;2022-10-30T01:57:54;30.17;;;19.93;;
5026;SDS011;2532;52.480;13.354;2022-10-30T02:00:27;29.17;;;18.40;;
5026;SDS011;2532;52.480;13.354;2022-10-30T02:02:55;30.33;;;19.50;;
5026;SDS011;2532;52.480;13.354;2022-10-30T02:05:24;28.60;;;18.77;;
5026;SDS011;2532;52.480;13.354;2022-10-30T02:07:57;31.03;;;18.43;;
5026;SDS011;2532;52.480;13.354;2022-10-30T02:10:24;26.47;;;19.33;;
5026;SDS011;2532;52.480;13.354;2022-10-30T02:12:52;32.30;;;19.13;;
5026;SDS011;2532;52.480;13.354;2022-10-30T02:15:19;30.43;;;19.50;;
5026;SDS011;2532;52.480;13.354;2022-10-30T02:17:49;26.43;;;18.50;;
5026;SDS011;2532;52.480;13.354;2022-10-30T02:20:18;33.13;;;18.37;;
5026;SDS011;2532;52.480;13.354;2022-10-30T02:22:45;31.53;;;18.23;;
5026;SDS011;2532;52.480;13.354;2022-10-30T02:25:13;30.23;;;19.13;;
5026;SDS011;2532;52.480;13.354;2022-10-30T02:27:40;30.50;;;17.30;;
5026;SDS011;2532;52.480;13.354;2022-10-30T02:30:07;29.23;;;17.57;;
5026;SDS011;2532;52.480;13.354;2022-10-30T02:32:35;28.17;;;19.07;;
5026;SDS011;2532;52.480;13.354;2022-10-30T02:35:02;28.50;;;17.77;;
5026;SDS011;2532;52.480;13.354;2022-10-30T02:37:31;28.27;;;18.37;;
5026;SDS011;2532;52.480;13.354;2022-10-30T02:39:59;29.83;;;18.00;;
5026;SDS011;2532;52.480;13.354;2022-10-30T02:42:26;27.93;;;17.60;;
5026;SDS011;2532;52.480;13.354;2022-10-30T02:44:53;26.77;;;18.23;;
5026;SDS011;2532;52.480;13.354;2022-10-30T02:47:20;29.10;;;17.97;;
5026;SDS011;2532;52.480;13.354;2022-10-30T02:49:46;29.53;;;17.83;;
5026;SDS011;2532;52.480;13.354;2022-10-30T02:52:13;25.53;;;17.53;;
5026;SDS011;2532;52.480;13.354;2022-10-30T02:54:41;28.07;;;17.43;;
5026;SDS011;2532;52.480;13.354;2022-10-30T02:57:08;32.33;;;16.90;;
5026;SDS011;2532;52.480;13.354;2022-10-30T02:59:35;22.60;;;16.77;;
5026;SDS011;2532;52.480;13.354;2022-10-30T03:02:02;24.43;;;16.87;;
5026;SDS011;2532;52.480;13.354;2022-10-30T03:04:28;26.20;;;17.53;;
5026;SDS011;2532;52.480;13.354;2022-10-30T03:06:55;30.47;;;17.47;;
5026;SDS011;2532;52.480;13.354;2022-10-30T03:09:22;25.20;;;16.70;;
5026;SDS011;2532;52.480;13.354;2022-10-30T03:11:50;26.97;;;17.77;;
5026;SDS011;2532;52.480;13.354;2022-10-30T03:14:17;29.70;;;16.87;;
5026;SDS011;2532;52.480;13.354;2022-10-30T03:16:44;26.73;;;16.80;;
5026;SDS011;2532;52.480;13.354;2022-10-30T03:19:10;26.37;;;17.10;;
5026;SDS011;2532;52.480;13.354;2022-10-30T03:21:37;25.70;;;17.27;;
5026;SDS011;2532;52.480;13.354;2022-10-30T03:24:04;31.60;;;16.53;;
5026;SDS011;2532;52.480;13.354;2022-10-30T03:26:31;27.27;;;17.70;;
5026;SDS011;2532;52.480;13.354;2022-10-30T03:28:59;27.80;;;18.23;;
5026;SDS011;2532;52.480;13.354;2022-10-30T03:31:26;29.57;;;17.90;;
5026;SDS011;2532;52.480;13.354;2022-10-30T03:33:55;25.50;;;16.67;;
5026;SDS011;2532;52.480;13.354;2022-10-30T03:36:22;21.60;;;17.07;;
5026;SDS011;2532;52.480;13.354;2022-10-30T03:38:50;27.60;;;16.43;;
5026;SDS011;2532;52.480;13.354;2022-10-30T03:41:17;25.37;;;15.57;;
5026;SDS011;2532;52.480;13.354;2022-10-30T03:43:44;29.20;;;17.03;;
5026;SDS011;2532;52.480;13.354;2022-10-30T03:46:12;28.80;;;16.37;;
5026;SDS011;2532;52.480;13.354;2022-10-30T03:48:39;28.67;;;17.37;;
5026;SDS011;2532;52.480;13.354;2022-10-30T03:51:05;30.33;;;17.10;;
5026;SDS011;2532;52.480;13.354;2022-10-30T03:53:32;24.63;;;17.47;;
5026;SDS011;2532;52.480;13.354;2022-10-30T03:55:59;24.63;;;16.50;;
5026;SDS011;2532;52.480;13.354;2022-10-30T03:58:27;24.97;;;16.27;;
5026;SDS011;2532;52.480;13.354;2022-10-30T04:00:59;27.87;;;16.93;;
5026;SDS011;2532;52.480;13.354;2022-10-30T04:03:27;25.33;;;17.33;;
5026;SDS011;2532;52.480;13.354;2022-10-30T04:05:54;39.30;;;17.70;;
5026;SDS011;2532;52.480;13.354;2022-10-30T04:08:21;27.50;;;16.90;;
5026;SDS011;2532;52.480;13.354;2022-10-30T04:10:48;27.93;;;16.13;;
5026;SDS011;2532;52.480;13.354;2022-10-30T04:13:15;34.43;;;17.20;;
5026;SDS011;2532;52.480;13.354;2022-10-30T04:15:45;26.53;;;16.50;;
5026;SDS011;2532;52.480;13.354;2022-10-30T04:18:13;33.60;;;16.23;;
5026;SDS011;2532;52.480;13.354;2022-10-30T04:20:42;25.93;;;16.03;;
5026;SDS011;2532;52.480;13.354;2022-10-30T04:23:10;28.27;;;16.37;;
5026;SDS011;2532;52.480;13.354;2022-10-30T04:25:40;32.87;;;15.60;;
5026;SDS011;2532;52.480;13.354;2022-10-30T04:28:07;26.87;;;16.60;;
5026;SDS011;2532;52.480;13.354;2022-10-30T04:30:34;26.10;;;15.53;;
5026;SDS011;2532;52.480;13.354;2022-10-30T04:33:01;34.63;;;16.40;;
5026;SDS011;2532;52.480;13.354;2022-10-30T04:35:30;24.33;;;16.67;;
5026;SDS011;2532;52.480;13.354;2022-10-30T04:38:00;29.97;;;15.77;;
5026;SDS011;2532;52.480;13.354;2022-10-30T04:40:30;24.33;;;14.87;;
5026;SDS011;2532;52.480;13.354;2022-10-30T04:42:59;22.67;;;14.57;;
5026;SDS011;2532;52.480;13.354;2022-10-30T04:45:27;26.93;;;15.53;;
5026;SDS011;2532;52.480;13.354;2022-10-30T04:47:58;30.43;;;15.90;;
5026;SDS011;2532;52.480;13.354;2022-10-30T04:50:26;30.10;;;17.17;;
5026;SDS011;2532;52.480;13.354;2022-10-30T04:52:57;26.83;;;15.97;;
5026;SDS011;2532;52.480;13.354;2022-10-30T04:55:26;23.73;;;16.07;;
5026;SDS011;2532;52.480;13.354;2022-10-30T04:57:57;23.80;;;16.00;;
5026;SDS011;2532;52.480;13.354;2022-10-30T05:00:24;27.40;;;16.10;;
5026;SDS011;2532;52.480;13.354;2022-10-30T05:02:52;26.90;;;16.00;;
5026;SDS011;2532;52.480;13.354;2022-10-30T05:05:19;29.23;;;16.17;;
5026;SDS011;2532;52.480;13.354;2022-10-30T05:07:46;24.73;;;15.23;;
5026;SDS011;2532;52.480;13.354;2022-10-30T05:10:14;27.00;;;15.00;;
5026;SDS011;2532;52.480;13.354;2022-10-30T05:12:42;28.90;;;16.10;;
5026;SDS011;2532;52.480;13.354;2022-10-30T05:15:09;27.20;;;16.20;;
5026;SDS011;2532;52.480;13.354;2022-10-30T05:17:36;25.93;;;15.10;;
5026;SDS011;2532;52.480;13.354;2022-10-30T05:20:04;25.27;;;15.50;;
5026;SDS011;2532;52.480;13.354;2022-10-30T05:22:32;27.83;;;15.80;;
5026;SDS011;2532;52.480;13.354;2022-10-30T05:24:59;26.37;;;14.70;;
5026;SDS011;2532;52.480;13.354;2022-10-30T05:27:27;26.87;;;15.13;;
5026;SDS011;2532;52.480;13.354;2022-10-30T05:29:54;22.43;;;15.37;;
5026;SDS011;2532;52.480;13.354;2022-10-30T05:32:20;23.90;;;15.20;;
5026;SDS011;2532;52.480;13.354;2022-10-30T05:34:47;25.23;;;15.43;;
5026;SDS011;2532;52.480;13.354;2022-10-30T05:37:14;24.17;;;14.57;;
5026;SDS011;2532;52.480;13.354;2022-10-30T05:39:41;30.10;;;15.77;;
5026;SDS011;2532;52.480;13.354;2022-10-30T05:42:07;28.47;;;15.50;;
5026;SDS011;2532;52.480;13.354;2022-10-30T05:44:35;30.93;;;15.73;;
5026;SDS011;2532;52.480;13.354;2022-10-30T05:47:02;29.80;;;16.37;;
5026;SDS011;2532;52.480;13.354;2022-10-30T05:49:29;24.70;;;14.63;;
5026;SDS011;2532;52.480;13.354;2022-10-30T05:51:56;22.87;;;14.07;;
5026;SDS011;2532;52.480;13.354;2022-10-30T05:54:23;24.47;;;15.00;;
5026;SDS011;2532;52.480;13.354;2022-10-30T05:56:49;25.77;;;16.27;;
5026;SDS011;2532;52.480;13.354;2022-10-30T05:59:16;26.07;;;14.67;;
5026;SDS011;2532;52.480;13.354;2022-10-30T06:01:44;21.17;;;13.43;;
5026;SDS011;2532;52.480;13.354;2022-10-30T06:04:11;19.60;;;14.43;;
5026;SDS011;2532;52.480;13.354;2022-10-30T06:06:38;20.80;;;14.10;;
5026;SDS011;2532;52.480;13.354;2022-10-30T06:09:05;25.33;;;15.20;;
5026;SDS011;2532;52.480;13.354;2022-10-30T06:11:32;27.30;;;14.63;;
5026;SDS011;2532;52.480;13.354;2022-10-30T06:13:58;25.83;;;13.97;;
5026;SDS011;2532;52.480;13.354;2022-10-30T06:16:25;21.90;;;14.67;;
5026;SDS011;2532;52.480;13.354;2022-10-30T06:18:53;24.83;;;14.77;;
5026;SDS011;2532;52.480;13.354;2022-10-30T06:21:20;23.03;;;14.63;;
5026;SDS011;2532;52.480;13.354;2022-10-30T06:23:47;20.87;;;13.20;;
5026;SDS011;2532;52.480;13.354;2022-10-30T06:26:14;20.67;;;13.33;;
5026;SDS011;2532;52.480;13.354;2022-10-30T06:28:41;24.60;;;14.03;;
5026;SDS011;2532;52.480;13.354;2022-10-30T06:31:07;19.70;;;13.80;;
5026;SDS011;2532;52.480;13.354;2022-10-30T06:33:34;19.20;;;13.50;;
5026;SDS011;2532;52.480;13.354;2022-10-30T06:36:02;23.33;;;13.80;;
5026;SDS011;2532;52.480;13.354;2022-10-30T06:38:30;18.07;;;11.63;;
5026;SDS011;2532;52.480;13.354;2022-10-30T06:40:57;25.73;;;13.17;;
5026;SDS011;2532;52.480;13.354;2022-10-30T06:43:23;18.43;;;12.47;;
5026;SDS011;2532;52.480;13.354;2022-10-30T06:45:50;19.43;;;11.90;;
5026;SDS011;2532;52.480;13.354;2022-10-30T06:48:17;23.13;;;12.07;;
5026;SDS011;2532;52.480;13.354;2022-10-30T06:50:44;17.13;;;12.03;;
5026;SDS011;2532;52.480;13.354;2022-10-30T06:53:12;24.80;;;13.10;;
5026;SDS011;2532;52.480;13.354;2022-10-30T06:55:39;20.07;;;12.63;;
5026;SDS011;2532;52.480;13.354;2022-10-30T06:58:05;17.20;;;11.70;;
5026;SDS011;2532;52.480;13.354;2022-10-30T07:00:32;23.13;;;11.70;;
5026;SDS011;2532;52.480;13.354;2022-10-30T07:02:59;23.70;;;12.30;;
5026;SDS011;2532;52.480;13.354;2022-10-30T07:05:28;29.03;;;13.30;;
5026;SDS011;2532;52.480;13.354;2022-10-30T07:07:55;19.80;;;13.30;;
5026;SDS011;2532;52.480;13.354;2022-10-30T07:10:24;21.13;;;11.87;;
5026;SDS011;2532;52.480;13.354;2022-10-30T07:12:53;19.83;;;12.90;;
5026;SDS011;2532;52.480;13.354;2022-10-30T07:15:20;21.87;;;12.20;;
5026;SDS011;2532;52.480;13.354;2022-10-30T07:17:52;23.83;;;11.97;;
5026;SDS011;2532;52.480;13.354;2022-10-30T07:20:23;23.53;;;13.37;;
5026;SDS011;2532;52.480;13.354;2022-10-30T07:22:50;20.50;;;12.27;;
5026;SDS011;2532;52.480;13.354;2022-10-30T07:25:17;24.47;;;13.47;;
5026;SDS011;2532;52.480;13.354;2022-10-30T07:27:46;19.27;;;12.77;;
5026;SDS011;2532;52.480;13.354;2022-10-30T07:30:15;17.00;;;12.70;;
5026;SDS011;2532;52.480;13.354;2022-10-30T07:32:43;19.27;;;12.27;;
5026;SDS011;2532;52.480;13.354;2022-10-30T07:35:10;18.60;;;12.30;;
5026;SDS011;2532;52.480;13.354;2022-10-30T07:37:38;23.07;;;13.10;;
5026;SDS011;2532;52.480;13.354;2022-10-30T07:40:06;26.30;;;12.70;;
5026;SDS011;2532;52.480;13.354;2022-10-30T07:42:33;22.70;;;12.40;;
5026;SDS011;2532;52.480;13.354;2022-10-30T07:45:01;18.97;;;12.47;;
5026;SDS011;2532;52.480;13.354;2022-10-30T07:47:28;32.00;;;13.90;;
5026;SDS011;2532;52.480;13.354;2022-10-30T07:49:55;23.13;;;12.53;;
5026;SDS011;2532;52.480;13.354;2022-10-30T07:52:22;20.70;;;12.00;;
5026;SDS011;2532;52.480;13.354;2022-10-30T07:54:49;25.03;;;13.40;;
5026;SDS011;2532;52.480;13.354;2022-10-30T07:57:16;24.03;;;13.10;;
5026;SDS011;2532;52.480;13.354;2022-10-30T07:59:43;21.50;;;13.07;;
5026;SDS011;2532;52.480;13.354;2022-10-30T08:02:11;21.93;;;13.10;;
5026;SDS011;2532;52.480;13.354;2022-10-30T08:04:37;22.40;;;12.47;;
5026;SDS011;2532;52.480;13.354;2022-10-30T08:07:04;25.47;;;14.50;;
5026;SDS011;2532;52.480;13.354;2022-10-30T08:09:31;25.57;;;13.20;;
5026;SDS011;2532;52.480;13.354;2022-10-30T08:11:58;24.70;;;12.43;;
5026;SDS011;2532;52.480;13.354;2022-10-30T08:14:25;22.67;;;13.07;;
5026;SDS011;2532;52.480;13.354;2022-10-30T08:16:51;20.97;;;12.17;;
5026;SDS011;2532;52.480;13.354;2022-10-30T08:19:20;21.20;;;13.40;;
5026;SDS011;2532;52.480;13.354;2022-10-30T08:21:46;21.93;;;12.60;;
5026;SDS011;2532;52.480;13.354;2022-10-30T08:24:13;22.07;;;12.37;;
5026;SDS011;2532;52.480;13.354;2022-10-30T08:26:40;27.13;;;13.27;;
5026;SDS011;2532;52.480;13.354;2022-10-30T08:29:06;21.83;;;12.53;;
5026;SDS011;2532;52.480;13.354;2022-10-30T08:31:33;21.30;;;12.03;;
5026;SDS011;2532;52.480;13.354;2022-10-30T08:34:00;22.97;;;11.80;;
5026;SDS011;2532;52.480;13.354;2022-10-30T08:36:28;17.90;;;11.60;;
5026;SDS011;2532;52.480;13.354;2022-10-30T08:38:55;22.63;;;11.37;;
5026;SDS011;2532;52.480;13.354;2022-10-30T08:41:22;17.20;;;10.70;;
5026;SDS011;2532;52.480;13.354;2022-10-30T08:43:49;17.30;;;10.33;;
5026;SDS011;2532;52.480;13.354;2022-10-30T08:46:16;21.60;;;10.77;;
5026;SDS011;2532;52.480;13.354;2022-10-30T08:48:43;19.90;;;11.70;;
5026;SDS011;2532;52.480;13.354;2022-10-30T08:51:09;17.23;;;10.60;;
5026;SDS011;2532;52.480;13.354;2022-10-30T08:53:38;22.03;;;10.67;;
5026;SDS011;2532;52.480;13.354;2022-10-30T08:56:04;23.70;;;11.50;;
5026;SDS011;2532;52.480;13.354;2022-10-30T08:58:31;18.10;;;10.40;;
5026;SDS011;2532;52.480;13.354;2022-10-30T09:00:58;17.00;;;10.27;;
5026;SDS011;2532;52.480;13.354;2022-10-30T09:03:25;15.73;;;9.20;;
5026;SDS011;2532;52.480;13.354;2022-10-30T09:05:52;17.27;;;9.47;;
5026;SDS011;2532;52.480;13.354;2022-10-30T09:08:19;21.00;;;9.63;;
5026;SDS011;2532;52.480;13.354;2022-10-30T09:10:47;16.03;;;9.10;;
5026;SDS011;2532;52.480;13.354;2022-10-30T09:13:18;15.67;;;8.90;;
5026;SDS011;2532;52.480;13.354;2022-10-30T09:15:45;18.80;;;8.30;;
5026;SDS011;2532;52.480;13.354;2022-10-30T09:18:12;17.60;;;9.57;;
5026;SDS011;2532;52.480;13.354;2022-10-30T09:20:39;16.97;;;9.10;;
5026;SDS011;2532;52.480;13.354;2022-10-30T09:23:05;16.63;;;9.40;;
5026;SDS011;2532;52.480;13.354;2022-10-30T09:25:32;18.87;;;9.00;;
5026;SDS011;2532;52.480;13.354;2022-10-30T09:28:01;19.60;;;9.80;;
5026;SDS011;2532;52.480;13.354;2022-10-30T09:30:27;19.60;;;9.03;;
5026;SDS011;2532;52.480;13.354;2022-10-30T09:32:54;24.27;;;10.67;;
5026;SDS011;2532;52.480;13.354;2022-10-30T09:35:22;13.80;;;8.37;;
5026;SDS011;2532;52.480;13.354;2022-10-30T09:37:49;13.93;;;7.93;;
5026;SDS011;2532;52.480;13.354;2022-10-30T09:40:18;18.73;;;8.00;;
5026;SDS011;2532;52.480;13.354;2022-10-30T09:42:48;13.33;;;8.10;;
5026;SDS011;2532;52.480;13.354;2022-10-30T09:45:21;17.63;;;8.73;;
5026;SDS011;2532;52.480;13.354;2022-10-30T09:48:13;21.33;;;8.90;;
5026;SDS011;2532;52.480;13.354;2022-10-30T09:51:04;21.83;;;8.40;;
5026;SDS011;2532;52.480;13.354;2022-10-30T09:53:40;14.93;;;9.10;;
5026;SDS011;2532;52.480;13.354;2022-10-30T09:56:17;16.23;;;8.43;;
5026;SDS011;2532;52.480;13.354;2022-10-30T09:58:51;20.13;;;8.40;;
5026;SDS011;2532;52.480;13.354;2022-10-30T10:01:26;17.80;;;7.87;;
5026;SDS011;2532;52.480;13.354;2022-10-30T10:03:58;18.17;;;7.93;;
5026;SDS011;2532;52.480;13.354;2022-10-30T10:06:29;17.40;;;7.70;;
5026;SDS011;2532;52.480;13.354;2022-10-30T10:09:00;13.00;;;8.03;;
5026;SDS011;2532;52.480;13.354;2022-10-30T10:11:30;16.27;;;7.70;;
5026;SDS011;2532;52.480;13.354;2022-10-30T10:14:02;14.97;;;8.50;;
5026;SDS011;2532;52.480;13.354;2022-10-30T10:16:34;21.87;;;7.80;;
5026;SDS011;2532;52.480;13.354;2022-10-30T10:19:06;22.23;;;8.17;;
5026;SDS011;2532;52.480;13.354;2022-10-30T10:21:42;12.07;;;6.47;;
5026;SDS011;2532;52.480;13.354;2022-10-30T10:24:13;17.23;;;6.70;;
5026;SDS011;2532;52.480;13.354;2022-10-30T10:26:46;16.27;;;7.03;;
5026;SDS011;2532;52.480;13.354;2022-10-30T10:29:24;11.27;;;6.53;;
5026;SDS011;2532;52.480;13.354;2022-10-30T10:32:03;15.70;;;7.17;;
5026;SDS011;2532;52.480;13.354;2022-10-30T10:34:48;21.80;;;7.77;;
5026;SDS011;2532;52.480;13.354;2022-10-30T10:37:25;15.80;;;6.70;;
5026;SDS011;2532;52.480;13.354;2022-10-30T10:40:02;17.30;;;6.80;;
5026;SDS011;2532;52.480;13.354;2022-10-30T10:42:53;15.80;;;7.63;;
5026;SDS011;2532;52.480;13.354;2022-10-30T10:45:35;12.93;;;7.00;;
5026;SDS011;2532;52.480;13.354;2022-10-30T10:48:18;16.83;;;6.90;;
5026;SDS011;2532;52.480;13.354;2022-10-30T10:50:57;11.83;;;5.90;;
5026;SDS011;2532;52.480;13.354;2022-10-30T10:53:29;37.53;;;22.80;;
5026;SDS011;2532;52.480;13.354;2022-10-30T10:56:03;16.50;;;7.60;;
5026;SDS011;2532;52.480;13.354;2022-10-30T10:58:32;16.93;;;7.13;;
5026;SDS011;2532;52.480;13.354;2022-10-30T11:01:07;16.20;;;9.40;;
5026;SDS011;2532;52.480;13.354;2022-10-30T11:03:46;16.40;;;7.37;;
5026;SDS011;2532;52.480;13.354;2022-10-30T11:06:20;12.40;;;6.90;;
5026;SDS011;2532;52.480;13.354;2022-10-30T11:08:51;15.53;;;6.90;;
5026;SDS011;2532;52.480;13.354;2022-10-30T11:11:25;14.80;;;6.43;;
5026;SDS011;2532;52.480;13.354;2022-10-30T11:13:52;11.67;;;6.63;;
5026;SDS011;2532;52.480;13.354;2022-10-30T11:16:24;11.73;;;6.80;;
5026;SDS011;2532;52.480;13.354;2022-10-30T11:18:57;16.43;;;7.97;;
5026;SDS011;2532;52.480;13.354;2022-10-30T11:21:26;22.50;;;9.53;;
5026;SDS011;2532;52.480;13.354;2022-10-30T11:23:56;14.30;;;7.20;;
5026;SDS011;2532;52.480;13.354;2022-10-30T11:26:27;15.20;;;7.57;;
5026;SDS011;2532;52.480;13.354;2022-10-30T11:28:58;15.13;;;6.87;;
5026;SDS011;2532;52.480;13.354;2022-10-30T11:31:37;14.20;;;6.77;;
5026;SDS011;2532;52.480;13.354;2022-10-30T11:34:14;11.10;;;6.70;;
5026;SDS011;2532;52.480;13.354;2022-10-30T11:36:50;14.73;;;6.73;;
5026;SDS011;2532;52.480;13.354;2022-10-30T11:39:18;16.13;;;6.93;;
5026;SDS011;2532;52.480;13.354;2022-10-30T11:41:47;20.47;;;7.70;;
5026;SDS011;2532;52.480;13.354;2022-10-30T11:44:21;14.53;;;7.17;;
5026;SDS011;2532;52.480;13.354;2022-10-30T11:46:50;12.97;;;5.80;;
5026;SDS011;2532;52.480;13.354;2022-10-30T11:49:26;10.50;;;5.90;;
5026;SDS011;2532;52.480;13.354;2022-10-30T11:52:01;14.80;;;6.37;;
5026;SDS011;2532;52.480;13.354;2022-10-30T11:54:28;18.80;;;7.03;;
5026;SDS011;2532;52.480;13.354;2022-10-30T11:56:55;13.33;;;6.47;;
5026;SDS011;2532;52.480;13.354;2022-10-30T11:59:23;21.77;;;9.53;;
5026;SDS011;2532;52.480;13.354;2022-10-30T12:01:58;14.53;;;8.00;;
5026;SDS011;2532;52.480;13.354;2022-10-30T12:04:37;15.37;;;7.43;;
5026;SDS011;2532;52.480;13.354;2022-10-30T12:07:08;10.77;;;6.70;;
5026;SDS011;2532;52.480;13.354;2022-10-30T12:09:44;12.30;;;6.43;;
5026;SDS011;2532;52.480;13.354;2022-10-30T12:12:20;15.07;;;6.10;;
5026;SDS011;2532;52.480;13.354;2022-10-30T12:14:49;12.10;;;6.77;;
5026;SDS011;2532;52.480;13.354;2022-10-30T12:17:17;15.40;;;6.20;;
5026;SDS011;2532;52.480;13.354;2022-10-30T12:19:47;18.10;;;6.80;;
5026;SDS011;2532;52.480;13.354;2022-10-30T12:22:29;18.90;;;6.87;;
5026;SDS011;2532;52.480;13.354;2022-10-30T12:24:57;12.07;;;6.67;;
5026;SDS011;2532;52.480;13.354;2022-10-30T12:27:27;14.97;;;6.63;;
5026;SDS011;2532;52.480;13.354;2022-10-30T12:30:05;25.53;;;6.13;;
5026;SDS011;2532;52.480;13.354;2022-10-30T12:32:44;14.07;;;6.80;;
5026;SDS011;2532;52.480;13.354;2022-10-30T12:35:30;13.10;;;7.50;;
5026;SDS011;2532;52.480;13.354;2022-10-30T12:38:03;21.30;;;8.27;;
5026;SDS011;2532;52.480;13.354;2022-10-30T12:40:40;15.73;;;7.43;;
5026;SDS011;2532;52.480;13.354;2022-10-30T12:43:21;14.00;;;6.53;;
5026;SDS011;2532;52.480;13.354;2022-10-30T12:45:53;13.20;;;6.83;;
5026;SDS011;2532;52.480;13.354;2022-10-30T12:48:27;13.80;;;6.63;;
5026;SDS011;2532;52.480;13.354;2022-10-30T12:51:06;15.50;;;6.63;;
5026;SDS011;2532;52.480;13.354;2022-10-30T12:53:42;14.43;;;8.20;;
5026;SDS011;2532;52.480;13.354;2022-10-30T12:56:14;15.47;;;6.60;;
5026;SDS011;2532;52.480;13.354;2022-10-30T12:58:45;16.67;;;6.40;;
5026;SDS011;2532;52.480;13.354;2022-10-30T13:01:16;12.43;;;6.17;;
5026;SDS011;2532;52.480;13.354;2022-10-30T13:03:52;16.27;;;7.20;;
5026;SDS011;2532;52.480;13.354;2022-10-30T13:06:25;15.97;;;7.40;;
5026;SDS011;2532;52.480;13.354;2022-10-30T13:08:58;14.90;;;7.73;;
5026;SDS011;2532;52.480;13.354;2022-10-30T13:11:36;13.50;;;7.17;;
5026;SDS011;2532;52.480;13.354;2022-10-30T13:14:08;16.47;;;5.63;;
5026;SDS011;2532;52.480;13.354;2022-10-30T13:16:39;15.80;;;6.30;;
5026;SDS011;2532;52.480;13.354;2022-10-30T13:19:08;15.87;;;7.90;;
5026;SDS011;2532;52.480;13.354;2022-10-30T13:21:40;22.40;;;8.37;;
5026;SDS011;2532;52.480;13.354;2022-10-30T13:24:14;13.10;;;7.00;;
5026;SDS011;2532;52.480;13.354;2022-10-30T13:26:46;15.70;;;6.83;;
5026;SDS011;2532;52.480;13.354;2022-10-30T13:29:19;10.87;;;6.27;;
5026;SDS011;2532;52.480;13.354;2022-10-30T13:31:57;17.67;;;7.30;;
5026;SDS011;2532;52.480;13.354;2022-10-30T13:34:39;15.33;;;8.27;;
5026;SDS011;2532;52.480;13.354;2022-10-30T13:37:17;21.23;;;6.83;;
5026;SDS011;2532;52.480;13.354;2022-10-30T13:39:52;17.73;;;6.00;;
5026;SDS011;2532;52.480;13.354;2022-10-30T13:42:33;16.53;;;6.47;;
5026;SDS011;2532;52.480;13.354;2022-10-30T13:45:19;17.07;;;6.50;;
5026;SDS011;2532;52.480;13.354;2022-10-30T13:47:57;15.13;;;6.70;;
5026;SDS011;2532;52.480;13.354;2022-10-30T13:50:32;13.80;;;8.13;;
5026;SDS011;2532;52.480;13.354;2022-10-30T13:53:10;16.93;;;9.00;;
5026;SDS011;2532;52.480;13.354;2022-10-30T13:55:42;20.13;;;7.63;;
5026;SDS011;2532;52.480;13.354;2022-10-30T13:58:12;17.97;;;7.00;;
5026;SDS011;2532;52.480;13.354;2022-10-30T14:00:51;14.10;;;6.10;;
5026;SDS011;2532;52.480;13.354;2022-10-30T14:03:31;14.83;;;6.33;;
5026;SDS011;2532;52.480;13.354;2022-10-30T14:06:12;12.07;;;6.30;;
5026;SDS011;2532;52.480;13.354;2022-10-30T14:08:51;13.97;;;5.87;;
5026;SDS011;2532;52.480;13.354;2022-10-30T14:11:27;10.80;;;5.40;;
5026;SDS011;2532;52.480;13.354;2022-10-30T14:13:55;13.47;;;6.57;;
5026;SDS011;2532;52.480;13.354;2022-10-30T14:16:30;12.23;;;6.87;;
5026;SDS011;2532;52.480;13.354;2022-10-30T14:19:06;14.73;;;6.07;;
5026;SDS011;2532;52.480;13.354;2022-10-30T14:21:38;21.30;;;7.40;;
5026;SDS011;2532;52.480;13.354;2022-10-30T14:24:19;20.10;;;7.63;;
5026;SDS011;2532;52.480;13.354;2022-10-30T14:29:53;15.60;;;6.87;;
5026;SDS011;2532;52.480;13.354;2022-10-30T14:32:37;17.13;;;8.90;;
5026;SDS011;2532;52.480;13.354;2022-10-30T14:35:26;22.33;;;7.87;;
5026;SDS011;2532;52.480;13.354;2022-10-30T14:37:57;14.07;;;7.33;;
5026;SDS011;2532;52.480;13.354;2022-10-30T14:40:54;18.80;;;7.00;;
5026;SDS011;2532;52.480;13.354;2022-10-30T14:43:39;17.40;;;7.17;;
5026;SDS011;2532;52.480;13.354;2022-10-30T14:46:10;16.37;;;7.90;;
5026;SDS011;2532;52.480;13.354;2022-10-30T14:48:46;17.70;;;8.57;;
5026;SDS011;2532;52.480;13.354;2022-10-30T14:51:20;12.93;;;8.10;;
5026;SDS011;2532;52.480;13.354;2022-10-30T14:53:55;15.07;;;6.47;;
5026;SDS011;2532;52.480;13.354;2022-10-30T14:56:33;15.53;;;6.50;;
5026;SDS011;2532;52.480;13.354;2022-10-30T14:59:09;17.83;;;7.20;;
5026;SDS011;2532;52.480;13.354;2022-10-30T15:01:48;17.13;;;7.03;;
5026;SDS011;2532;52.480;13.354;2022-10-30T15:04:21;15.10;;;6.13;;
5026;SDS011;2532;52.480;13.354;2022-10-30T15:06:54;11.93;;;6.40;;